Time;durP1;ratioP1;P1;durP2;ratioP2;P2;SDS_P1;SDS_P2;PMS_P1;PMS_P2;Temp;Humidity;BMP_temperature;BMP_pressure;BME280_temperature;BME280_humidity;BME280_pressure;Samples;Min_cycle;Max_cycle;Signal;HPM_P1;HPM_P2
2022/01/01 00:01:29;;;;;;;41.50;18.10;;;;;;;-0.59;83.49;98883.84;24316;1348;3028679;-66
2022/01/01 00:03:58;;;;;;;34.60;15.50;;;;;;;-0.67;84.43;98885.55;24304;1352;3055266;-64
2022/01/01 00:06:28;;;;;;;35.40;16.70;;;;;;;-0.23;83.38;98887.40;24324;1348;3026341;-64
2022/01/01 00:08:57;;;;;;;36.60;17.70;;;;;;;-0.06;82.12;98886.10;24321;1352;3026451;-66
2022/01/01 00:11:26;;;;;;;40.10;19.80;;;;;;;-0.11;82.24;98880.71;24292;1356;3054158;-64
2022/01/01 00:13:55;;;;;;;39.60;19.10;;;;;;;-0.35;82.77;98880.31;24333;1344;3026130;-65
2022/01/01 00:16:23;;;;;;;45.00;18.10;;;;;;;-0.38;83.36;98874.20;24307;1355;3048492;-62
2022/01/01 00:18:53;;;;;;;55.00;18.90;;;;;;;-0.71;84.23;98879.83;24327;1356;3026451;-66
2022/01/01 00:21:22;;;;;;;30.30;15.80;;;;;;;-0.79;85.11;98879.32;24319;1352;3026235;-65
2022/01/01 00:23:51;;;;;;;33.50;16.80;;;;;;;-0.06;83.72;98868.18;24292;1349;3047496;-66
2022/01/01 00:26:20;;;;;;;49.00;20.30;;;;;;;0.14;81.91;98856.80;24338;1349;3025907;-67
2022/01/01 00:28:49;;;;;;;42.60;19.30;;;;;;;0.13;81.51;98846.51;24308;1355;3070633;-65
2022/01/01 00:31:18;;;;;;;35.40;18.30;;;;;;;-0.20;82.57;98854.80;24336;1355;3026687;-65
2022/01/01 00:33:48;;;;;;;45.50;17.80;;;;;;;-0.21;83.10;98852.58;24320;1355;3053794;-65
2022/01/01 00:36:17;;;;;;;43.80;19.50;;;;;;;-0.49;83.80;98860.02;24270;1352;3026620;-66
2022/01/01 00:38:46;;;;;;;38.40;16.70;;;;;;;-0.55;84.27;98857.60;24300;1349;3029465;-65
2022/01/01 00:41:15;;;;;;;39.20;17.10;;;;;;;-0.23;84.17;98848.15;24340;1352;3050447;-64
2022/01/01 00:43:45;;;;;;;34.20;17.60;;;;;;;0.17;82.50;98836.23;24294;1349;3026533;-65
2022/01/01 00:46:14;;;;;;;39.90;18.60;;;;;;;0.09;82.19;98835.58;24312;1353;3028799;-66
2022/01/01 00:48:43;;;;;;;41.70;17.20;;;;;;;-0.17;83.00;98835.09;24291;1355;3050548;-63
2022/01/01 00:51:12;;;;;;;39.60;18.00;;;;;;;-0.44;84.28;98834.23;24296;1347;3026616;-65
2022/01/01 00:53:41;;;;;;;36.80;16.70;;;;;;;-0.63;84.99;98829.39;24313;1344;3054649;-65
2022/01/01 00:56:09;;;;;;;35.80;17.10;;;;;;;-0.74;85.78;98820.38;24356;1348;3027039;-67
2022/01/01 00:58:39;;;;;;;42.20;18.10;;;;;;;-0.36;85.13;98813.73;24303;1357;3051423;-66
2022/01/01 01:01:08;;;;;;;33.90;17.10;;;;;;;0.00;84.23;98799.33;24286;1348;3026459;-61
2022/01/01 01:03:37;;;;;;;34.50;17.30;;;;;;;-0.16;84.10;98799.42;24303;1355;3057821;-66
2022/01/01 01:06:06;;;;;;;34.90;17.10;;;;;;;-0.21;84.38;98796.82;24296;1352;3026789;-65
2022/01/01 01:08:36;;;;;;;38.90;19.30;;;;;;;-0.53;85.35;98796.63;24331;1349;3054381;-64
2022/01/01 01:11:09;;;;;;;29.60;15.00;;;;;;;-0.59;86.10;98792.83;24330;1353;3055230;-65
2022/01/01 01:13:44;;;;;;;39.40;18.50;;;;;;;-0.35;85.64;98782.73;24304;1349;3026417;-62
2022/01/01 01:16:14;;;;;;;43.60;17.60;;;;;;;-0.16;84.92;98775.14;24301;1349;3054603;-65
2022/01/01 01:18:44;;;;;;;29.30;15.00;;;;;;;-0.27;84.66;98769.27;24323;1349;3026575;-65
2022/01/01 01:21:23;;;;;;;32.80;15.70;;;;;;;-0.43;85.22;98760.05;24323;1348;3048496;-64
2022/01/01 01:24:12;;;;;;;34.90;16.70;;;;;;;-0.61;86.29;98754.33;24319;1355;3053168;-63
2022/01/01 01:26:49;;;;;;;30.80;14.90;;;;;;;-0.76;87.04;98753.88;24328;1348;3026548;-66
2022/01/01 01:29:18;;;;;;;31.10;14.10;;;;;;;-0.21;86.03;98744.67;24305;1348;3066660;-62
2022/01/01 01:31:47;;;;;;;31.00;15.00;;;;;;;0.14;84.51;98732.48;24281;1352;3026450;-64
2022/01/01 01:34:16;;;;;;;30.40;15.90;;;;;;;-0.09;84.31;98729.86;24339;1351;3027087;-66
2022/01/01 01:36:46;;;;;;;39.20;15.80;;;;;;;-0.02;84.34;98721.72;24299;1349;3069967;-65
2022/01/01 01:39:15;;;;;;;35.90;16.30;;;;;;;-0.33;85.09;98723.98;24316;1349;3027246;-61
2022/01/01 01:41:44;;;;;;;26.00;13.60;;;;;;;-0.45;85.90;98720.70;24321;1352;3050881;-62
2022/01/01 01:44:23;;;;;;;27.30;12.80;;;;;;;-0.07;85.72;98713.44;24326;1354;3026361;-64
2022/01/01 01:46:52;;;;;;;30.80;14.70;;;;;;;0.17;84.42;98707.91;24330;1348;3047608;-64
2022/01/01 01:49:21;;;;;;;29.60;14.10;;;;;;;0.26;84.13;98699.52;24319;1352;3026787;-62
2022/01/01 01:51:51;;;;;;;51.80;28.20;;;;;;;0.11;84.37;98691.03;24341;1348;3070184;-66
2022/01/01 01:54:22;;;;;;;29.60;14.50;;;;;;;-0.17;85.16;98692.55;24315;1348;3026527;-64
2022/01/01 01:56:51;;;;;;;22.60;11.10;;;;;;;-0.40;86.47;98699.59;24326;1355;3029452;-65
2022/01/01 01:59:19;;;;;;;23.60;12.90;;;;;;;0.04;85.84;98695.05;24301;1351;3070791;-65
2022/01/01 02:01:50;;;;;;;23.20;13.20;;;;;;;0.17;84.67;98693.27;24310;1348;3026502;-64
2022/01/01 02:04:19;;;;;;;24.60;12.60;;;;;;;0.02;85.27;98688.54;24318;1349;3027125;-64
2022/01/01 02:06:48;;;;;;;34.80;13.20;;;;;;;0.03;85.21;98687.50;24329;1352;3026532;-64
2022/01/01 02:09:18;;;;;;;24.10;13.60;;;;;;;-0.28;86.35;98688.56;24330;1351;3048483;-63
2022/01/01 02:11:48;;;;;;;21.90;12.20;;;;;;;-0.25;86.78;98681.61;24327;1352;3026776;-63
2022/01/01 02:14:31;;;;;;;20.80;11.40;;;;;;;0.19;86.09;98675.13;24332;1349;3026684;-64
2022/01/01 02:19:30;;;;;;;24.20;12.50;;;;;;;0.57;83.21;98661.67;24309;1348;3026571;-65
2022/01/01 02:22:03;;;;;;;21.90;12.10;;;;;;;0.39;84.14;98657.27;24328;1348;3054134;-61
2022/01/01 02:24:33;;;;;;;;;;;;;;;0.22;84.57;98652.30;24352;1348;3059126;-63
2022/01/01 02:27:02;;;;;;;20.10;11.30;;;;;;;0.08;85.19;98650.84;24306;1349;3026269;-62
2022/01/01 02:29:32;;;;;;;20.10;10.90;;;;;;;0.15;85.62;98645.10;24333;1348;3052536;-61
2022/01/01 02:32:02;;;;;;;20.50;11.30;;;;;;;0.56;84.43;98638.44;24339;1352;3029001;-65
2022/01/01 02:34:31;;;;;;;21.90;11.90;;;;;;;1.13;83.00;98627.39;24296;1355;3055400;-64
2022/01/01 02:37:01;;;;;;;19.50;11.30;;;;;;;0.94;82.19;98625.28;24315;1348;3026671;-65
2022/01/01 02:39:30;;;;;;;24.60;11.90;;;;;;;0.75;82.88;98617.99;24331;1348;3027128;-65
2022/01/01 02:41:59;;;;;;;24.50;13.80;;;;;;;0.57;83.77;98615.69;24291;1348;3052432;-67
2022/01/01 02:44:28;;;;;;;24.10;13.60;;;;;;;0.61;83.93;98609.16;24295;1348;3026526;-64
2022/01/01 02:46:58;;;;;;;20.70;11.00;;;;;;;0.52;84.02;98611.02;24341;1348;3049488;-64
2022/01/01 02:49:26;;;;;;;19.90;10.90;;;;;;;0.97;82.97;98601.20;24327;1344;3026588;-66
2022/01/01 02:51:58;;;;;;;23.00;13.10;;;;;;;1.33;81.10;98593.18;24278;1348;3070369;-62
2022/01/01 02:54:27;;;;;;;20.60;12.10;;;;;;;1.30;80.84;98586.73;24314;1351;3026161;-67
2022/01/01 02:56:55;;;;;;;21.20;12.30;;;;;;;1.22;80.86;98583.39;24302;1348;3052970;-62
2022/01/01 02:59:24;;;;;;;27.30;14.20;;;;;;;0.95;81.45;98584.03;24305;1348;3028165;-65
2022/01/01 03:01:53;;;;;;;27.30;13.10;;;;;;;0.65;82.87;98588.88;24327;1356;3052685;-63
2022/01/01 03:04:22;;;;;;;17.80;9.90;;;;;;;0.44;84.11;98590.62;24337;1349;3026745;-65
2022/01/01 03:06:55;;;;;;;22.70;12.80;;;;;;;0.98;83.07;98580.80;24290;1349;3049645;-62
2022/01/01 03:09:25;;;;;;;19.10;11.00;;;;;;;1.45;80.76;98575.48;24295;1355;3055764;-64
2022/01/01 03:11:54;;;;;;;19.70;10.60;;;;;;;1.33;80.60;98577.98;24324;1352;3026615;-62
2022/01/01 03:14:24;;;;;;;19.70;11.20;;;;;;;1.18;81.28;98571.80;24314;1345;3026395;-64
2022/01/01 03:16:55;;;;;;;20.60;12.30;;;;;;;1.09;81.72;98563.18;24357;1348;3026433;-62
2022/01/01 03:19:24;;;;;;;20.50;12.20;;;;;;;0.99;81.94;98557.00;24339;1351;3050663;-62
2022/01/01 03:21:53;;;;;;;16.20;9.30;;;;;;;0.88;82.56;98548.90;24343;1348;3029421;-65
2022/01/01 03:24:22;;;;;;;17.80;10.10;;;;;;;1.35;81.85;98545.66;24305;1350;3055101;-61
2022/01/01 03:26:51;;;;;;;22.10;11.10;;;;;;;1.75;79.86;98538.94;24283;1355;3026512;-65
2022/01/01 03:29:20;;;;;;;15.50;9.70;;;;;;;1.51;80.12;98539.54;24303;1354;3049009;-64
2022/01/01 03:31:49;;;;;;;20.10;11.30;;;;;;;1.18;81.59;98534.04;24315;1351;3026420;-63
2022/01/01 03:34:18;;;;;;;19.90;10.80;;;;;;;1.01;82.56;98526.59;24314;1348;3057866;-65
2022/01/01 03:36:47;;;;;;;14.10;8.20;;;;;;;0.97;82.78;98528.79;24296;1352;3028342;-61
2022/01/01 03:39:33;;;;;;;13.10;8.10;;;;;;;0.86;83.22;98524.16;24321;1348;3054264;-62
2022/01/01 03:42:03;;;;;;;12.10;8.50;;;;;;;1.48;82.34;98519.81;24305;1348;3026492;-63
2022/01/01 03:44:32;;;;;;;12.80;6.20;;;;;;;1.77;80.39;98516.07;24298;1352;3056525;-61
2022/01/01 03:47:09;;;;;;;15.20;9.50;;;;;;;1.59;80.69;98514.70;24357;1348;3026553;-62
2022/01/01 03:49:38;;;;;;;14.90;9.30;;;;;;;1.49;81.46;98511.67;24302;1349;3049057;-62
2022/01/01 03:52:07;;;;;;;16.50;10.60;;;;;;;1.18;82.13;98508.86;24280;1351;3026827;-63
2022/01/01 03:54:37;;;;;;;17.70;10.50;;;;;;;0.85;83.51;98507.65;24302;1348;3071584;-63
2022/01/01 03:57:06;;;;;;;12.70;7.40;;;;;;;0.96;84.08;98502.25;24337;1348;3026953;-63
2022/01/01 03:59:34;;;;;;;14.00;8.80;;;;;;;1.30;83.26;98498.23;24309;1348;3053233;-65
2022/01/01 04:02:04;;;;;;;14.30;8.30;;;;;;;1.77;81.51;98487.09;24307;1349;3026548;-63
2022/01/01 04:04:33;;;;;;;13.20;8.10;;;;;;;1.67;81.09;98489.55;24329;1348;3055320;-62
2022/01/01 04:07:04;;;;;;;9.90;6.60;;;;;;;1.56;81.48;98491.70;24307;1348;3026086;-63
2022/01/01 04:09:35;;;;;;;13.70;7.20;;;;;;;1.15;82.66;98496.89;24286;1349;3051506;-61
2022/01/01 04:12:04;;;;;;;11.60;7.20;;;;;;;0.95;84.01;98493.16;24355;1348;3026500;-64
2022/01/01 04:14:33;;;;;;;12.40;7.90;;;;;;;0.61;85.39;98493.33;24334;1351;3058212;-64
2022/01/01 04:17:03;;;;;;;11.90;7.80;;;;;;;1.18;84.53;98487.98;24311;1348;3026580;-63
2022/01/01 04:19:41;;;;;;;11.50;7.50;;;;;;;1.30;83.28;98482.86;24335;1349;3026495;-64
2022/01/01 04:22:12;;;;;;;11.20;6.50;;;;;;;1.41;82.76;98481.08;24309;1349;3051218;-62
2022/01/01 04:24:41;;;;;;;10.90;7.60;;;;;;;1.31;82.58;98477.12;24315;1349;3026436;-64
2022/01/01 04:27:11;;;;;;;11.60;6.50;;;;;;;1.14;83.20;98474.69;24300;1348;3026859;-63
2022/01/01 04:29:41;;;;;;;9.40;5.80;;;;;;;0.89;83.98;98469.03;24305;1351;3027426;-61
2022/01/01 04:32:13;;;;;;;9.30;5.80;;;;;;;0.76;84.77;98469.38;24313;1355;3070785;-63
2022/01/01 04:34:42;;;;;;;9.70;6.20;;;;;;;1.20;84.10;98460.13;24315;1348;3027322;-63
2022/01/01 04:37:13;;;;;;;7.60;4.60;;;;;;;1.30;82.65;98450.77;24295;1348;3026868;-62
2022/01/01 04:39:42;;;;;;;8.00;5.10;;;;;;;1.32;82.60;98449.66;24303;1348;3069285;-63
2022/01/01 04:42:11;;;;;;;10.30;6.30;;;;;;;1.11;82.98;98453.06;24325;1349;3028003;-63
2022/01/01 04:44:41;;;;;;;9.40;5.50;;;;;;;0.97;83.92;98445.98;24324;1348;3053683;-66
2022/01/01 04:47:10;;;;;;;8.10;5.10;;;;;;;0.72;84.84;98442.27;24296;1348;3026519;-66
2022/01/01 04:49:39;;;;;;;8.10;5.30;;;;;;;1.17;84.15;98440.94;24313;1348;3055241;-64
2022/01/01 04:52:07;;;;;;;11.30;6.00;;;;;;;1.51;82.27;98445.30;24331;1348;3028172;-68
2022/01/01 04:54:41;;;;;;;12.60;7.20;;;;;;;1.34;82.54;98451.31;24347;1348;3048768;-65
2022/01/01 04:57:11;;;;;;;13.80;7.30;;;;;;;1.27;82.91;98457.30;24359;1348;3053200;-66
2022/01/01 04:59:41;;;;;;;12.30;7.20;;;;;;;1.12;82.99;98454.77;24297;1348;3026916;-65
2022/01/01 05:02:10;;;;;;;9.30;5.60;;;;;;;0.86;84.24;98451.74;24301;1348;3026484;-67
2022/01/01 05:04:40;;;;;;;8.10;4.90;;;;;;;0.87;84.71;98454.99;24294;1351;3026625;-62
2022/01/01 05:07:09;;;;;;;9.20;5.40;;;;;;;1.35;83.36;98457.84;24294;1348;3027486;-68
2022/01/01 05:09:52;;;;;;;9.80;6.10;;;;;;;1.53;82.16;98446.27;24331;1352;3053952;-64
2022/01/01 05:12:22;;;;;;;12.70;5.70;;;;;;;1.28;82.27;98461.55;24347;1349;3026454;-64
2022/01/01 05:14:54;;;;;;;9.50;5.70;;;;;;;1.05;83.48;98438.81;24308;1348;3026121;-65
2022/01/01 05:17:24;;;;;;;12.30;6.20;;;;;;;0.96;83.73;98447.42;24320;1348;3027021;-62
2022/01/01 05:19:58;;;;;;;8.90;4.80;;;;;;;0.96;84.30;98436.39;24336;1348;3054256;-65
2022/01/01 05:22:27;;;;;;;8.80;6.00;;;;;;;1.35;83.45;98425.41;24332;1353;3026586;-63
2022/01/01 05:24:59;;;;;;;10.20;6.10;;;;;;;1.69;81.46;98417.11;24324;1348;3051998;-65
2022/01/01 05:27:31;;;;;;;7.50;5.00;;;;;;;1.38;82.08;98415.98;24363;1348;3026350;-65
2022/01/01 05:30:01;;;;;;;10.10;6.20;;;;;;;1.15;83.00;98408.75;24354;1348;3027169;-64
2022/01/01 05:32:29;;;;;;;10.80;6.60;;;;;;;0.92;84.15;98413.41;24348;1349;3027762;-65
2022/01/01 05:34:59;;;;;;;7.20;4.90;;;;;;;0.94;84.62;98410.08;24346;1349;3026753;-64
2022/01/01 05:37:27;;;;;;;9.20;5.90;;;;;;;1.16;84.19;98404.94;24330;1347;3070999;-63
2022/01/01 05:39:57;;;;;;;7.50;4.70;;;;;;;1.58;82.62;98402.38;24334;1349;3027490;-66
2022/01/01 05:42:26;;;;;;;14.20;6.40;;;;;;;1.42;82.51;98398.52;24340;1354;3028602;-65
2022/01/01 05:44:55;;;;;;;11.00;5.90;;;;;;;1.27;83.17;98405.85;24334;1346;3066351;-64
2022/01/01 05:47:24;;;;;;;12.90;5.70;;;;;;;1.24;83.01;98414.09;24351;1346;3025954;-62
2022/01/01 05:49:52;;;;;;;6.00;4.00;;;;;;;0.82;84.80;98416.90;24360;1348;3053866;-64
2022/01/01 05:52:21;;;;;;;6.40;4.00;;;;;;;1.26;84.23;98419.89;24361;1345;3026596;-63
2022/01/01 05:54:51;;;;;;;7.70;4.90;;;;;;;1.37;83.43;98413.42;24370;1348;3051947;-65
2022/01/01 05:57:19;;;;;;;8.40;4.60;;;;;;;1.32;83.75;98416.02;24339;1348;3030330;-63
2022/01/01 05:59:48;;;;;;;8.50;5.20;;;;;;;1.34;83.00;98408.71;24364;1344;3052000;-69
2022/01/01 06:02:17;;;;;;;10.80;5.30;;;;;;;1.01;84.28;98420.31;24351;1352;3026468;-68
2022/01/01 06:04:46;;;;;;;8.60;5.60;;;;;;;0.96;85.05;98413.59;24349;1348;3058698;-67
2022/01/01 06:07:15;;;;;;;7.40;4.80;;;;;;;1.45;83.79;98404.14;24375;1348;3028204;-68
2022/01/01 06:09:50;;;;;;;7.00;4.30;;;;;;;1.62;82.92;98411.55;24341;1354;3055170;-63
2022/01/01 06:12:19;;;;;;;5.50;3.60;;;;;;;1.32;82.98;98413.42;24333;1351;3026831;-64
2022/01/01 06:14:52;;;;;;;6.50;4.10;;;;;;;1.18;84.01;98407.23;24363;1352;3054684;-64
2022/01/01 06:17:22;;;;;;;5.90;3.90;;;;;;;1.11;84.35;98411.67;24365;1348;3026476;-66
2022/01/01 06:19:51;;;;;;;4.80;3.50;;;;;;;1.01;84.74;98409.64;24351;1351;3026650;-64
2022/01/01 06:22:20;;;;;;;4.30;3.30;;;;;;;1.38;84.42;98403.17;24327;1352;3053972;-67
2022/01/01 06:24:49;;;;;;;5.60;3.60;;;;;;;1.50;83.21;98400.98;24354;1352;3028337;-64
2022/01/01 06:27:18;;;;;;;6.90;3.70;;;;;;;1.34;83.81;98394.02;24352;1348;3048101;-65
2022/01/01 06:29:47;;;;;;;8.90;3.30;;;;;;;1.22;84.20;98397.09;24317;1351;3026375;-65
2022/01/01 06:32:16;;;;;;;6.60;4.00;;;;;;;1.03;84.94;98403.55;24324;1348;3070533;-66
2022/01/01 06:34:47;;;;;;;5.20;3.70;;;;;;;1.16;84.93;98405.23;24366;1348;3026899;-63
2022/01/01 06:37:16;;;;;;;6.70;4.60;;;;;;;1.64;83.93;98392.66;24334;1348;3027038;-66
2022/01/01 06:39:45;;;;;;;5.90;4.40;;;;;;;1.62;83.32;98394.63;24395;1352;3027314;-65
2022/01/01 06:42:14;;;;;;;4.70;4.20;;;;;;;1.39;83.61;98379.33;24340;1348;3048411;-62
2022/01/01 06:44:43;;;;;;;8.70;5.10;;;;;;;1.45;83.83;98378.75;24370;1346;3026816;-67
2022/01/01 06:47:12;;;;;;;5.60;3.80;;;;;;;1.19;84.61;98385.14;24340;1348;3070605;-65
2022/01/01 06:49:41;;;;;;;5.40;4.50;;;;;;;1.62;84.14;98379.95;24296;1348;3027028;-66
2022/01/01 06:52:15;;;;;;;5.70;4.20;;;;;;;1.66;82.98;98378.58;24341;1345;3051778;-69
2022/01/01 06:54:44;;;;;;;6.70;4.40;;;;;;;1.68;83.06;98374.71;24302;1348;3026441;-69
2022/01/01 06:57:13;;;;;;;6.10;4.60;;;;;;;1.71;82.82;98377.33;24306;1348;3051106;-66
2022/01/01 06:59:42;;;;;;;6.60;3.90;;;;;;;1.38;83.78;98372.12;24329;1349;3026746;-64
2022/01/01 07:02:11;;;;;;;4.80;3.30;;;;;;;1.19;84.70;98373.76;24314;1348;3070850;-63
2022/01/01 07:04:39;;;;;;;5.80;4.00;;;;;;;1.74;83.52;98356.31;24316;1348;3026295;-69
2022/01/01 07:07:09;;;;;;;5.70;4.00;;;;;;;2.07;81.79;98353.20;24315;1346;3053877;-62
2022/01/01 07:09:38;;;;;;;5.40;3.80;;;;;;;1.88;81.90;98341.77;24313;1348;3028429;-67
2022/01/01 07:12:08;;;;;;;5.60;4.00;;;;;;;1.71;82.37;98341.92;24313;1351;3026582;-68
2022/01/01 07:14:37;;;;;;;7.40;4.50;;;;;;;1.69;82.81;98346.68;24344;1348;3027434;-68
2022/01/01 07:17:14;;;;;;;6.50;4.30;;;;;;;1.58;83.08;98342.16;24291;1352;3070984;-66
2022/01/01 07:19:44;;;;;;;6.90;4.60;;;;;;;2.22;81.54;98333.54;24325;1352;3026910;-68
2022/01/01 07:22:12;;;;;;;6.30;4.80;;;;;;;2.12;80.89;98342.06;24306;1355;3050377;-69
2022/01/01 07:24:42;;;;;;;5.40;4.00;;;;;;;1.96;81.71;98339.86;24312;1351;3026745;-64
2022/01/01 07:27:12;;;;;;;5.90;4.30;;;;;;;2.06;81.47;98337.36;24309;1352;3053093;-66
2022/01/01 07:29:41;;;;;;;6.30;4.60;;;;;;;2.05;81.23;98343.77;24299;1351;3028395;-67
2022/01/01 07:32:09;;;;;;;5.30;3.60;;;;;;;1.62;82.33;98345.77;24304;1349;3026537;-68
2022/01/01 07:34:39;;;;;;;9.20;4.70;;;;;;;2.35;81.33;98339.34;24322;1351;3055156;-69
2022/01/01 07:37:08;;;;;;;7.90;5.10;;;;;;;2.61;79.46;98335.53;24307;1348;3028231;-67
2022/01/01 07:39:37;;;;;;;7.20;5.10;;;;;;;2.60;78.71;98335.07;24301;1352;3048965;-66
2022/01/01 07:42:06;;;;;;;8.70;5.50;;;;;;;2.05;80.68;98343.62;24307;1348;3026848;-65
2022/01/01 07:44:36;;;;;;;8.80;5.30;;;;;;;1.78;82.05;98345.13;24323;1348;3056690;-65
2022/01/01 07:47:06;;;;;;;5.70;4.10;;;;;;;1.56;82.75;98339.30;24319;1345;3027048;-63
2022/01/01 07:49:35;;;;;;;5.30;3.80;;;;;;;2.15;82.05;98338.34;24296;1348;3051359;-68
2022/01/01 07:52:04;;;;;;;6.50;4.80;;;;;;;2.80;79.39;98332.05;24320;1348;3026393;-65
2022/01/01 07:54:34;;;;;;;6.40;3.90;;;;;;;2.66;78.68;98328.40;24320;1349;3052986;-67
2022/01/01 07:57:03;;;;;;;8.40;5.60;;;;;;;2.48;79.22;98329.95;24320;1349;3026485;-65
2022/01/01 07:59:33;;;;;;;8.50;4.70;;;;;;;1.91;81.48;98340.41;24340;1352;3048624;-66
2022/01/01 08:02:03;;;;;;;9.50;5.70;;;;;;;1.99;81.50;98351.30;24311;1348;3027752;-67
2022/01/01 08:04:32;;;;;;;7.80;5.10;;;;;;;1.86;82.93;98354.07;24323;1348;3068222;-66
2022/01/01 08:07:02;;;;;;;4.30;3.10;;;;;;;2.39;81.84;98339.14;24341;1348;3026713;-66
2022/01/01 08:09:48;;;;;;;9.60;5.80;;;;;;;2.58;79.67;98340.17;24290;1348;3053651;-64
2022/01/01 08:12:17;;;;;;;12.30;5.10;;;;;;;2.25;80.82;98330.97;24286;1348;3026583;-66
2022/01/01 08:14:47;;;;;;;12.20;6.20;;;;;;;2.21;81.26;98337.04;24306;1355;3055375;-66
2022/01/01 08:17:16;;;;;;;5.80;3.10;;;;;;;2.21;81.01;98337.02;24317;1348;3026980;-64
2022/01/01 08:19:46;;;;;;;10.40;6.90;;;;;;;2.41;80.83;98338.38;24317;1348;3049158;-65
2022/01/01 08:22:15;;;;;;;8.20;4.70;;;;;;;2.19;82.05;98333.31;24319;1348;3026697;-67
2022/01/01 08:24:44;;;;;;;8.80;5.40;;;;;;;2.42;81.56;98330.05;24305;1348;3026686;-67
2022/01/01 08:27:13;;;;;;;9.70;7.50;;;;;;;2.69;80.25;98326.39;24293;1353;3053344;-65
2022/01/01 08:29:42;;;;;;;9.30;6.40;;;;;;;2.22;81.58;98322.45;24320;1349;3026704;-66
2022/01/01 08:32:11;;;;;;;10.10;6.50;;;;;;;2.07;82.18;98320.73;24343;1351;3058766;-66
2022/01/01 08:34:40;;;;;;;8.60;5.20;;;;;;;2.78;80.80;98312.80;24300;1352;3026459;-68
2022/01/01 08:37:09;;;;;;;13.00;6.80;;;;;;;2.91;80.31;98319.48;24307;1354;3055037;-70
2022/01/01 08:39:38;;;;;;;20.00;6.90;;;;;;;2.49;80.86;98311.23;24314;1348;3026210;-65
2022/01/01 08:42:09;;;;;;;14.10;6.50;;;;;;;2.54;81.01;98317.20;24330;1351;3053758;-63
2022/01/01 08:44:40;;;;;;;6.80;4.30;;;;;;;2.30;81.62;98313.64;24354;1348;3026616;-72
2022/01/01 08:47:09;;;;;;;12.70;7.60;;;;;;;2.29;81.92;98315.39;24347;1348;3026766;-67
2022/01/01 08:49:38;;;;;;;8.50;5.80;;;;;;;2.76;81.13;98313.95;24343;1348;3054591;-67
2022/01/01 08:52:11;;;;;;;10.30;5.10;;;;;;;2.78;80.12;98312.45;24335;1348;3028347;-66
2022/01/01 08:54:40;;;;;;;10.00;6.20;;;;;;;2.60;80.96;98316.27;24359;1349;3048465;-63
2022/01/01 08:57:12;;;;;;;6.50;4.60;;;;;;;2.47;81.52;98328.10;24380;1349;3026831;-64
2022/01/01 08:59:41;;;;;;;8.90;4.90;;;;;;;2.14;82.75;98322.80;24368;1349;3026939;-65
2022/01/01 09:02:10;;;;;;;7.80;4.70;;;;;;;2.36;83.37;98319.05;24367;1348;3051306;-65
2022/01/01 09:04:39;;;;;;;7.60;5.30;;;;;;;2.91;81.04;98315.32;24345;1348;3026674;-69
2022/01/01 09:07:08;;;;;;;6.50;4.40;;;;;;;3.03;80.54;98312.66;24364;1348;3029843;-65
2022/01/01 09:09:37;;;;;;;5.50;4.10;;;;;;;2.65;81.16;98315.85;24342;1348;3050684;-66
2022/01/01 09:12:07;;;;;;;8.70;5.70;;;;;;;2.70;81.03;98313.36;24376;1348;3026727;-67
2022/01/01 09:14:36;;;;;;;6.90;4.40;;;;;;;2.60;81.92;98315.70;24389;1348;3069135;-66
2022/01/01 09:17:05;;;;;;;15.70;6.10;;;;;;;2.53;82.73;98305.30;24349;1348;3028075;-66
2022/01/01 09:19:34;;;;;;;17.40;7.30;;;;;;;3.11;80.91;98305.19;24362;1352;3053254;-67
2022/01/01 09:22:23;;;;;;;12.30;6.40;;;;;;;2.48;81.71;98307.80;24306;1351;3067748;-65
2022/01/01 09:24:53;;;;;;;9.20;5.90;;;;;;;2.19;83.89;98304.27;24352;1348;3027048;-63
2022/01/01 09:27:22;;;;;;;8.90;5.30;;;;;;;2.89;82.28;98300.16;24356;1352;3026904;-66
2022/01/01 09:29:50;;;;;;;8.30;5.20;;;;;;;3.27;80.27;98293.00;24324;1349;3067797;-67
2022/01/01 09:32:20;;;;;;;12.80;7.20;;;;;;;3.18;80.44;98300.88;24373;1355;3028352;-65
2022/01/01 09:34:50;;;;;;;11.40;7.00;;;;;;;2.94;80.90;98292.67;24401;1354;3051019;-66
2022/01/01 09:37:33;;;;;;;11.80;6.90;;;;;;;2.82;81.96;98285.83;24335;1348;3071829;-67
2022/01/01 09:40:03;;;;;;;10.30;6.80;;;;;;;3.25;80.88;98295.51;24373;1348;3026274;-68
2022/01/01 09:42:32;;;;;;;10.00;5.30;;;;;;;3.34;80.00;98296.80;24374;1348;3026382;-69
2022/01/01 09:45:05;;;;;;;8.70;5.20;;;;;;;3.19;80.74;98291.98;24346;1355;3027330;-67
2022/01/01 09:47:36;;;;;;;11.50;5.90;;;;;;;2.89;81.96;98292.08;24372;1348;3025739;-70
2022/01/01 09:50:05;;;;;;;9.80;5.40;;;;;;;2.62;83.07;98286.41;24344;1348;3026290;-68
2022/01/01 09:52:35;;;;;;;9.90;6.10;;;;;;;3.20;81.91;98281.23;24340;1352;3026601;-67
2022/01/01 09:55:04;;;;;;;10.50;5.70;;;;;;;3.38;80.88;98278.92;24345;1348;3026523;-69
2022/01/01 09:57:34;;;;;;;8.40;5.60;;;;;;;3.51;80.38;98276.93;24355;1348;3052021;-65
2022/01/01 10:00:04;;;;;;;13.60;6.30;;;;;;;3.56;79.93;98284.98;24353;1348;3028495;-67
2022/01/01 10:02:33;;;;;;;8.10;5.70;;;;;;;3.22;80.76;98279.59;24324;1348;3056837;-68
2022/01/01 10:05:05;;;;;;;7.20;3.70;;;;;;;3.09;81.79;98279.33;24313;1348;3026548;-65
2022/01/01 10:07:34;;;;;;;10.90;6.80;;;;;;;3.96;80.01;98271.80;24345;1355;3026551;-66
2022/01/01 10:10:19;;;;;;;9.20;5.50;;;;;;;4.21;78.53;98270.69;24355;1348;3026728;-64
2022/01/01 10:13:11;;;;;;;;;;;;;;;3.94;78.85;98267.42;24332;1355;3050193;-65
2022/01/01 10:15:42;;;;;;;9.00;5.10;;;;;;;3.45;80.26;98263.86;24413;1348;3055583;-67
2022/01/01 10:18:11;;;;;;;10.10;6.10;;;;;;;3.27;81.67;98272.23;24353;1348;3026194;-68
2022/01/01 10:20:44;;;;;;;8.10;5.90;;;;;;;3.21;82.63;98272.71;24364;1353;3027446;-65
2022/01/01 10:23:15;;;;;;;8.10;5.50;;;;;;;4.18;80.97;98265.98;24356;1348;3026099;-66
2022/01/01 10:28:32;;;;;;;10.60;6.60;;;;;;;4.16;79.48;98264.89;24297;1351;3055225;-69
2022/01/01 10:31:01;;;;;;;12.20;7.50;;;;;;;3.89;80.29;98264.23;24307;1349;3026393;-67
2022/01/01 10:33:30;;;;;;;7.80;5.70;;;;;;;3.57;82.12;98267.41;24212;1351;3054156;-65
2022/01/01 10:36:02;;;;;;;9.00;6.50;;;;;;;3.77;82.74;98263.28;24229;1351;3026559;-69
2022/01/01 10:38:31;;;;;;;11.30;7.40;;;;;;;4.11;81.87;98256.81;24242;1346;3050717;-68
2022/01/01 10:41:07;;;;;;;14.00;9.70;;;;;;;4.15;81.85;98256.13;24313;1345;3027441;-67
2022/01/01 10:43:41;;;;;;;16.30;10.30;;;;;;;4.19;82.07;98256.60;24338;1352;3071493;-67
2022/01/01 10:46:19;;;;;;;17.30;8.70;;;;;;;3.93;83.07;98255.36;24318;1348;3051822;-69
2022/01/01 10:49:09;;;;;;;15.40;9.00;;;;;;;4.14;83.50;98254.91;24291;1349;3026722;-69
2022/01/01 10:51:38;;;;;;;17.30;11.20;;;;;;;4.62;81.90;98249.91;24302;1348;3052976;-70
2022/01/01 10:54:10;;;;;;;18.70;11.30;;;;;;;4.96;80.76;98247.13;24295;1344;3027475;-69
2022/01/01 10:56:40;;;;;;;24.20;13.70;;;;;;;4.80;81.09;98254.28;24332;1351;3052300;-67
2022/01/01 10:59:09;;;;;;;25.90;14.70;;;;;;;4.67;81.68;98251.17;24315;1352;3026599;-71
2022/01/01 11:01:44;;;;;;;23.10;13.90;;;;;;;4.67;82.22;98251.35;24344;1355;3026841;-68
2022/01/01 11:04:13;;;;;;;30.90;17.70;;;;;;;5.17;81.79;98238.31;24338;1348;3049233;-71
2022/01/01 11:06:46;;;;;;;31.10;16.50;;;;;;;5.35;80.75;98235.17;24345;1348;3026311;-66
2022/01/01 11:09:17;;;;;;;36.00;20.30;;;;;;;5.15;81.22;98232.16;24332;1356;3053348;-66
2022/01/01 11:12:02;;;;;;;29.20;18.30;;;;;;;4.97;82.04;98242.38;24232;1351;3071924;-70
2022/01/01 11:14:32;;;;;;;30.30;17.70;;;;;;;4.90;82.63;98242.09;24293;1352;3048990;-66
2022/01/01 11:17:01;;;;;;;33.30;18.10;;;;;;;5.45;81.28;98238.44;24298;1349;3026193;-68
2022/01/01 11:19:31;;;;;;;36.20;20.40;;;;;;;5.77;79.48;98234.05;24298;1348;3026647;-62
2022/01/01 11:22:03;;;;;;;35.40;18.90;;;;;;;5.68;79.58;98240.52;24232;1356;3026272;-67
2022/01/01 11:24:33;;;;;;;48.50;22.80;;;;;;;5.74;79.03;98241.75;24341;1347;3030023;-67
2022/01/01 11:27:03;;;;;;;38.40;23.10;;;;;;;5.48;79.89;98245.34;24317;1346;3054839;-66
2022/01/01 11:29:35;;;;;;;27.40;14.70;;;;;;;5.50;80.04;98248.36;24326;1351;3026444;-67
2022/01/01 11:32:04;;;;;;;30.40;15.40;;;;;;;5.87;79.25;98251.18;24331;1348;3051113;-68
2022/01/01 11:34:36;;;;;;;27.90;16.20;;;;;;;6.28;77.37;98246.48;24314;1356;3026480;-69
2022/01/01 11:37:05;;;;;;;36.40;21.00;;;;;;;5.83;78.67;98257.70;24356;1348;3027076;-66